createdAt,value
2019-02-26T00:00:17.167Z,3.18
2019-02-26T00:01:18.535Z,3.10
2019-02-26T00:02:17.302Z,3.06
2019-02-26T00:03:19.535Z,3.08
2019-02-26T00:04:15.894Z,3.06
2019-02-26T00:05:19.374Z,3.03
2019-02-26T00:06:18.559Z,3.00
2019-02-26T00:07:18.254Z,2.92
2019-02-26T00:08:19.410Z,2.92
2019-02-26T00:09:20.498Z,2.78
2019-02-26T00:10:16.833Z,2.71
2019-02-26T00:11:15.868Z,2.69
2019-02-26T00:12:15.803Z,2.63
2019-02-26T00:13:15.791Z,2.63
2019-02-26T00:14:17.707Z,2.48
2019-02-26T00:15:15.818Z,2.54
2019-02-26T00:16:17.708Z,2.45
2019-02-26T00:17:17.545Z,2.39
2019-02-26T00:18:16.798Z,2.24
2019-02-26T00:19:15.735Z,2.21
2019-02-26T00:20:17.575Z,2.17
2019-02-26T00:21:15.703Z,2.07
2019-02-26T00:22:16.444Z,2.17
2019-02-26T00:23:15.682Z,2.05
2019-02-26T00:24:16.782Z,2.05
2019-02-26T00:25:17.846Z,1.99
2019-02-26T00:26:17.637Z,1.86
2019-02-26T00:27:15.663Z,1.87
2019-02-26T00:28:17.500Z,1.84
2019-02-26T00:29:15.616Z,1.79
2019-02-26T00:30:16.662Z,1.77
2019-02-26T00:31:15.588Z,1.69
2019-02-26T00:32:16.165Z,1.63
2019-02-26T00:33:29.961Z,1.66
2019-02-26T00:34:16.862Z,1.69
2019-02-26T00:35:16.078Z,1.52
2019-02-26T00:36:15.566Z,1.59
2019-02-26T00:37:15.556Z,1.60
2019-02-26T00:38:17.670Z,1.59
2019-02-26T00:39:15.520Z,1.58
2019-02-26T00:40:17.987Z,1.54
2019-02-26T00:41:15.477Z,1.44
2019-02-26T00:42:19.555Z,1.45
2019-02-26T00:43:20.932Z,1.54
2019-02-26T00:44:18.577Z,1.54
2019-02-26T00:45:15.427Z,1.41
2019-02-26T00:46:15.416Z,1.36
2019-02-26T00:47:15.418Z,1.34
2019-02-26T00:48:15.396Z,1.33
2019-02-26T00:49:15.408Z,1.32
2019-02-26T00:50:16.604Z,1.34
2019-02-26T00:51:16.136Z,1.24
2019-02-26T00:52:15.721Z,1.22
2019-02-26T00:53:17.279Z,1.20
2019-02-26T00:54:15.361Z,1.32
2019-02-26T00:55:15.337Z,1.26
2019-02-26T00:56:15.301Z,1.15
2019-02-26T00:57:15.314Z,1.14
2019-02-26T00:58:15.275Z,1.15
2019-02-26T00:59:15.284Z,1.05
2019-02-26T01:00:15.280Z,1.00
2019-02-26T01:01:17.038Z,1.02
2019-02-26T01:02:15.243Z,1.00
2019-02-26T01:03:29.927Z,0.97
2019-02-26T01:04:15.247Z,0.96
2019-02-26T01:05:15.820Z,0.98
2019-02-26T01:06:15.207Z,0.90
2019-02-26T01:07:15.190Z,0.91
2019-02-26T01:08:15.791Z,0.88
2019-02-26T01:09:15.157Z,0.90
2019-02-26T01:10:16.305Z,0.90
2019-02-26T01:11:15.188Z,0.90
2019-02-26T01:12:16.603Z,0.79
2019-02-26T01:13:15.174Z,0.73
2019-02-26T01:14:17.945Z,0.78
2019-02-26T01:15:15.113Z,0.70
2019-02-26T01:16:15.101Z,0.69
2019-02-26T01:17:16.959Z,0.61
2019-02-26T01:18:15.063Z,0.69
2019-02-26T01:19:17.033Z,0.68
2019-02-26T01:20:15.038Z,0.65
2019-02-26T01:21:15.053Z,0.66
2019-02-26T01:22:15.031Z,0.62
2019-02-26T01:23:16.461Z,0.61
2019-02-26T01:24:15.009Z,0.69
2019-02-26T01:25:15.971Z,0.70
2019-02-26T01:26:14.998Z,0.66
2019-02-26T01:27:14.969Z,0.62
2019-02-26T01:28:16.474Z,0.61
2019-02-26T01:29:18.526Z,0.61
2019-02-26T01:30:21.278Z,0.60
2019-02-26T01:31:15.922Z,0.49
2019-02-26T01:32:15.557Z,0.44
2019-02-26T01:33:14.906Z,0.53
2019-02-26T01:34:15.779Z,0.46
2019-02-26T01:35:14.865Z,0.38
2019-02-26T01:36:16.222Z,0.39
2019-02-26T01:37:14.842Z,0.41
2019-02-26T01:38:16.528Z,0.29
2019-02-26T01:39:16.234Z,0.46
2019-02-26T01:40:16.393Z,0.41
2019-02-26T01:41:15.758Z,0.38
2019-02-26T01:42:17.392Z,0.41
2019-02-26T01:43:14.796Z,0.41
2019-02-26T01:44:14.767Z,0.35
2019-02-26T01:45:14.764Z,0.36
2019-02-26T01:46:16.415Z,0.35
2019-02-26T01:47:14.775Z,0.36
2019-02-26T01:48:16.678Z,0.21
2019-02-26T01:49:14.719Z,0.28
2019-02-26T01:50:16.050Z,0.28
2019-02-26T01:51:14.691Z,0.29
2019-02-26T01:52:15.098Z,0.28
2019-02-26T01:53:16.932Z,0.23
2019-02-26T01:54:16.673Z,0.29
2019-02-26T01:55:16.164Z,0.14
2019-02-26T01:56:14.655Z,0.21
2019-02-26T01:57:14.623Z,0.20
2019-02-26T01:58:16.553Z,0.24
2019-02-26T01:59:18.299Z,0.14
2019-02-26T02:00:14.613Z,0.13
2019-02-26T02:01:16.638Z,0.13
2019-02-26T02:02:17.378Z,0.10
2019-02-26T02:03:14.559Z,0.20
2019-02-26T02:04:15.043Z,0.14
2019-02-26T02:05:14.567Z,0.03
2019-02-26T02:06:16.006Z,0.07
2019-02-26T02:07:14.511Z,0.10
2019-02-26T02:08:15.488Z,0.11
2019-02-26T02:09:16.369Z,0.15
2019-02-26T02:10:14.537Z,0.04
2019-02-26T02:11:14.475Z,0.15
2019-02-26T02:12:14.466Z,0.10
2019-02-26T02:13:14.445Z,0.11
2019-02-26T02:14:15.404Z,0.02
2019-02-26T02:15:15.770Z,-0.05
2019-02-26T02:16:14.435Z,-0.01
2019-02-26T02:17:14.406Z,-0.04
2019-02-26T02:18:14.495Z,-0.03
2019-02-26T02:19:17.995Z,-0.07
2019-02-26T02:20:16.409Z,-0.08
2019-02-26T02:21:15.387Z,-0.04
2019-02-26T02:22:16.341Z,-0.10
2019-02-26T02:23:14.348Z,-0.08
2019-02-26T02:24:15.576Z,-0.05
2019-02-26T02:25:14.353Z,-0.16
2019-02-26T02:26:15.672Z,-0.19
2019-02-26T02:27:17.469Z,-0.14
2019-02-26T02:28:16.728Z,-0.11
2019-02-26T02:29:16.532Z,-0.22
2019-02-26T02:30:21.697Z,-0.14
2019-02-26T02:31:15.255Z,-0.14
2019-02-26T02:32:14.299Z,-0.10
2019-02-26T02:33:17.260Z,-0.14
2019-02-26T02:34:15.220Z,-0.21
2019-02-26T02:35:17.877Z,-0.18
2019-02-26T02:36:14.884Z,-0.19
2019-02-26T02:37:15.400Z,-0.19
2019-02-26T02:38:16.663Z,-0.11
2019-02-26T02:39:15.649Z,-0.21
2019-02-26T02:40:14.153Z,-0.16
2019-02-26T02:41:14.136Z,-0.21
2019-02-26T02:42:16.276Z,-0.18
2019-02-26T02:43:16.104Z,-0.18
2019-02-26T02:44:15.380Z,-0.26
2019-02-26T02:45:16.986Z,-0.23
2019-02-26T02:46:15.078Z,-0.23
2019-02-26T02:47:14.068Z,-0.31
2019-02-26T02:48:14.229Z,-0.28
2019-02-26T02:49:15.752Z,-0.15
2019-02-26T02:50:15.200Z,-0.18
2019-02-26T02:51:14.092Z,-0.26
2019-02-26T02:52:14.018Z,-0.29
2019-02-26T02:53:14.019Z,-0.26
2019-02-26T02:54:15.551Z,-0.29
2019-02-26T02:55:18.637Z,-0.28
2019-02-26T02:56:16.066Z,-0.26
2019-02-26T02:57:13.960Z,-0.31
2019-02-26T02:58:17.305Z,-0.25
2019-02-26T02:59:14.537Z,-0.18
2019-02-26T03:00:13.971Z,-0.31
2019-02-26T03:01:16.512Z,-0.26
2019-02-26T03:02:15.041Z,-0.29
2019-02-26T03:03:13.896Z,-0.22
2019-02-26T03:04:17.270Z,-0.26
2019-02-26T03:05:14.882Z,-0.25
2019-02-26T03:06:13.857Z,-0.29
2019-02-26T03:07:15.222Z,-0.25
2019-02-26T03:08:15.829Z,-0.26
2019-02-26T03:09:15.224Z,-0.26
2019-02-26T03:10:13.853Z,-0.26
2019-02-26T03:11:13.814Z,-0.28
2019-02-26T03:12:14.424Z,-0.18
2019-02-26T03:13:14.420Z,-0.25
2019-02-26T03:14:16.047Z,-0.29
2019-02-26T03:15:13.762Z,-0.16
2019-02-26T03:16:15.811Z,-0.23
2019-02-26T03:17:14.760Z,-0.14
2019-02-26T03:18:14.907Z,-0.11
2019-02-26T03:19:14.618Z,-0.03
2019-02-26T03:20:13.698Z,0.03
2019-02-26T03:21:13.743Z,0.13
2019-02-26T03:22:17.386Z,0.24
2019-02-26T03:23:18.956Z,0.46
2019-02-26T03:24:13.655Z,0.61
2019-02-26T03:25:14.876Z,0.80
2019-02-26T03:26:15.154Z,0.88
2019-02-26T03:27:13.641Z,1.00
2019-02-26T03:28:13.619Z,1.05
2019-02-26T03:29:13.598Z,1.14
2019-02-26T03:30:20.266Z,1.06
2019-02-26T03:31:14.602Z,1.20
2019-02-26T03:32:13.589Z,1.20
2019-02-26T03:33:13.565Z,1.23
2019-02-26T03:34:19.015Z,1.32
2019-02-26T03:35:15.938Z,1.29
2019-02-26T03:36:14.583Z,1.37
2019-02-26T03:37:13.587Z,1.24
2019-02-26T03:38:15.329Z,1.18
2019-02-26T03:39:13.484Z,1.26
2019-02-26T03:40:13.479Z,1.29
2019-02-26T03:41:13.464Z,1.15
2019-02-26T03:42:16.170Z,1.11
2019-02-26T03:43:16.038Z,1.06
2019-02-26T03:44:13.439Z,0.91
2019-02-26T03:45:13.449Z,0.91
2019-02-26T03:46:13.405Z,0.73
2019-02-26T03:47:13.392Z,0.73
2019-02-26T03:48:13.403Z,0.69
2019-02-26T03:49:13.456Z,0.68
2019-02-26T03:50:13.359Z,0.66
2019-02-26T03:51:17.180Z,0.70
2019-02-26T03:52:15.867Z,0.73
2019-02-26T03:53:13.371Z,0.75
2019-02-26T03:54:13.314Z,0.78
2019-02-26T03:55:15.476Z,0.73
2019-02-26T03:56:14.794Z,0.72
2019-02-26T03:57:14.277Z,0.75
2019-02-26T03:58:13.277Z,0.86
2019-02-26T03:59:13.279Z,0.94
2019-02-26T04:00:14.953Z,1.06
2019-02-26T04:01:16.009Z,1.05
2019-02-26T04:02:15.458Z,1.08
2019-02-26T04:03:15.126Z,1.06
2019-02-26T04:04:13.241Z,0.88
2019-02-26T04:05:13.200Z,0.94
2019-02-26T04:06:13.204Z,0.86
2019-02-26T04:07:13.195Z,0.76
2019-02-26T04:08:13.162Z,0.62
2019-02-26T04:09:14.492Z,0.58
2019-02-26T04:10:13.159Z,0.57
2019-02-26T04:11:13.927Z,0.55
2019-02-26T04:12:15.366Z,0.50
2019-02-26T04:13:13.107Z,0.41
2019-02-26T04:14:17.347Z,0.35
2019-02-26T04:15:13.121Z,0.26
2019-02-26T04:16:13.093Z,0.36
2019-02-26T04:17:13.060Z,0.29
2019-02-26T04:18:13.044Z,0.24
2019-02-26T04:19:13.090Z,0.28
2019-02-26T04:20:13.859Z,0.36
2019-02-26T04:21:15.807Z,0.41
2019-02-26T04:22:15.136Z,0.35
2019-02-26T04:23:14.252Z,0.41
2019-02-26T04:24:13.050Z,0.41
2019-02-26T04:25:12.983Z,0.35
2019-02-26T04:26:18.512Z,0.28
2019-02-26T04:27:12.948Z,0.29
2019-02-26T04:28:12.984Z,0.21
2019-02-26T04:29:12.918Z,0.24
2019-02-26T04:30:13.665Z,0.15
2019-02-26T04:31:12.958Z,0.08
2019-02-26T04:32:15.064Z,0.03
2019-02-26T04:33:14.121Z,0.13
2019-02-26T04:34:12.872Z,0.08
2019-02-26T04:35:12.863Z,0.02
2019-02-26T04:36:14.878Z,0.00
2019-02-26T04:37:12.987Z,-0.01
2019-02-26T04:38:12.827Z,-0.05
2019-02-26T04:39:14.481Z,-0.08
2019-02-26T04:40:14.125Z,-0.15
2019-02-26T04:41:15.886Z,-0.15
2019-02-26T04:42:16.825Z,-0.15
2019-02-26T04:43:12.951Z,-0.22
2019-02-26T04:44:12.787Z,-0.25
2019-02-26T04:45:12.759Z,-0.34
2019-02-26T04:46:13.630Z,-0.37
2019-02-26T04:47:12.752Z,-0.44
2019-02-26T04:48:14.868Z,-0.47
2019-02-26T04:49:12.755Z,-0.49
2019-02-26T04:50:12.700Z,-0.37
2019-02-26T04:51:12.681Z,-0.46
2019-02-26T04:52:14.313Z,-0.40
2019-02-26T04:53:12.756Z,-0.40
2019-02-26T04:54:17.318Z,-0.51
2019-02-26T04:55:13.650Z,-0.51
2019-02-26T04:56:15.016Z,-0.49
2019-02-26T04:57:12.615Z,-0.58
2019-02-26T04:58:15.588Z,-0.58
2019-02-26T04:59:15.041Z,-0.69
2019-02-26T05:00:12.597Z,-0.70
2019-02-26T05:01:13.425Z,-0.72
2019-02-26T05:02:12.559Z,-0.73
2019-02-26T05:03:14.908Z,-0.78
2019-02-26T05:04:12.556Z,-0.76
2019-02-26T05:05:12.527Z,-0.78
2019-02-26T05:06:12.525Z,-0.73
2019-02-26T05:07:14.077Z,-0.80
2019-02-26T05:08:14.740Z,-0.76
2019-02-26T05:09:12.506Z,-0.82
2019-02-26T05:10:12.493Z,-0.78
2019-02-26T05:11:19.033Z,-0.94
2019-02-26T05:12:13.448Z,-0.94
2019-02-26T05:13:12.517Z,-0.99
2019-02-26T05:14:15.399Z,-0.98
2019-02-26T05:15:16.902Z,-0.92
2019-02-26T05:16:12.389Z,-0.99
2019-02-26T05:17:12.418Z,-0.97
2019-02-26T05:18:13.354Z,-1.05
2019-02-26T05:19:13.597Z,-0.98
2019-02-26T05:20:15.164Z,-1.09
2019-02-26T05:21:13.009Z,-1.05
2019-02-26T05:22:12.351Z,-0.98
2019-02-26T05:23:12.318Z,-1.01
2019-02-26T05:24:14.603Z,-1.04
2019-02-26T05:25:16.315Z,-0.99
2019-02-26T05:26:15.232Z,-1.01
2019-02-26T05:27:14.985Z,-1.04
2019-02-26T05:28:14.754Z,-1.09
2019-02-26T05:29:12.267Z,-1.10
2019-02-26T05:30:13.946Z,-1.12
2019-02-26T05:31:14.541Z,-1.12
2019-02-26T05:32:12.207Z,-1.07
2019-02-26T05:33:12.219Z,-1.10
2019-02-26T05:34:14.761Z,-1.10
2019-02-26T05:35:14.156Z,-1.15
2019-02-26T05:36:14.396Z,-1.12
2019-02-26T05:37:13.993Z,-1.15
2019-02-26T05:38:12.167Z,-1.12
2019-02-26T05:39:14.031Z,-1.16
2019-02-26T05:40:13.377Z,-1.13
2019-02-26T05:41:12.137Z,-1.15
2019-02-26T05:42:12.113Z,-1.12
2019-02-26T05:43:12.111Z,-1.07
2019-02-26T05:44:12.149Z,-1.19
2019-02-26T05:45:12.073Z,-1.17
2019-02-26T05:46:12.072Z,-1.22
2019-02-26T05:47:13.233Z,-1.25
2019-02-26T05:48:12.727Z,-1.22
2019-02-26T05:49:14.087Z,-1.22
2019-02-26T05:50:16.178Z,-1.25
2019-02-26T05:51:12.051Z,-1.12
2019-02-26T05:52:12.034Z,-1.10
2019-02-26T05:53:13.395Z,-1.19
2019-02-26T05:54:14.807Z,-1.05
2019-02-26T05:55:14.590Z,-1.05
2019-02-26T05:56:14.459Z,-1.09
2019-02-26T05:57:26.225Z,-1.02
2019-02-26T05:58:15.810Z,-1.04
2019-02-26T05:59:15.382Z,-1.09
2019-02-26T06:00:14.523Z,-1.05
2019-02-26T06:01:13.721Z,-0.98
2019-02-26T06:02:14.196Z,-1.05
2019-02-26T06:03:12.806Z,-1.07
2019-02-26T06:04:14.868Z,-0.98
2019-02-26T06:05:13.951Z,-0.99
2019-02-26T06:06:11.838Z,-1.01
2019-02-26T06:07:11.848Z,-1.05
2019-02-26T06:08:11.843Z,-1.02
2019-02-26T06:09:11.839Z,-0.99
2019-02-26T06:10:11.797Z,-0.92
2019-02-26T06:11:11.801Z,-0.92
2019-02-26T06:12:11.767Z,-0.95
2019-02-26T06:13:13.537Z,-0.85
2019-02-26T06:14:12.627Z,-0.80
2019-02-26T06:15:11.750Z,-0.83
2019-02-26T06:16:11.729Z,-0.82
2019-02-26T06:17:13.158Z,-0.78
2019-02-26T06:18:11.729Z,-0.92
2019-02-26T06:19:13.395Z,-0.79
2019-02-26T06:20:11.725Z,-0.78
2019-02-26T06:21:15.297Z,-0.75
2019-02-26T06:22:14.502Z,-0.78
2019-02-26T06:23:12.657Z,-0.75
2019-02-26T06:24:11.643Z,-0.76
2019-02-26T06:25:18.338Z,-0.73
2019-02-26T06:26:14.829Z,-0.78
2019-02-26T06:27:15.399Z,-0.79
2019-02-26T06:28:13.547Z,-0.73
2019-02-26T06:29:11.628Z,-0.73
2019-02-26T06:30:12.170Z,-0.75
2019-02-26T06:31:14.040Z,-0.78
2019-02-26T06:32:12.049Z,-0.72
2019-02-26T06:33:12.221Z,-0.67
2019-02-26T06:34:13.785Z,-0.64
2019-02-26T06:35:13.625Z,-0.72
2019-02-26T06:36:11.507Z,-0.62
2019-02-26T06:37:12.117Z,-0.60
2019-02-26T06:38:11.709Z,-0.54
2019-02-26T06:39:11.475Z,-0.40
2019-02-26T06:40:11.482Z,-0.44
2019-02-26T06:41:11.517Z,-0.47
2019-02-26T06:42:12.211Z,-0.36
2019-02-26T06:43:11.456Z,-0.44
2019-02-26T06:44:11.455Z,-0.36
2019-02-26T06:45:13.246Z,-0.37
2019-02-26T06:46:12.371Z,-0.31
2019-02-26T06:47:12.500Z,-0.33
2019-02-26T06:48:14.694Z,-0.31
2019-02-26T06:49:11.386Z,-0.26
2019-02-26T06:50:13.124Z,-0.23
2019-02-26T06:51:11.348Z,-0.18
2019-02-26T06:52:13.044Z,-0.14
2019-02-26T06:53:13.632Z,-0.10
2019-02-26T06:54:11.296Z,-0.05
2019-02-26T06:55:12.300Z,-0.07
2019-02-26T06:56:11.348Z,-0.04
2019-02-26T06:57:11.320Z,0.04
2019-02-26T06:58:11.284Z,-0.01
2019-02-26T06:59:12.260Z,0.13
2019-02-26T07:00:11.260Z,0.11
2019-02-26T07:01:12.028Z,0.13
2019-02-26T07:02:11.466Z,0.15
2019-02-26T07:03:11.216Z,0.18
2019-02-26T07:04:12.914Z,0.24
2019-02-26T07:05:11.204Z,0.26
2019-02-26T07:06:11.246Z,0.32
2019-02-26T07:07:14.123Z,0.32
2019-02-26T07:08:11.148Z,0.31
2019-02-26T07:09:13.299Z,0.29
2019-02-26T07:10:16.005Z,0.42
2019-02-26T07:11:12.117Z,0.47
2019-02-26T07:12:11.145Z,0.51
2019-02-26T07:13:12.311Z,0.60
2019-02-26T07:14:11.167Z,0.58
2019-02-26T07:15:12.115Z,0.62
2019-02-26T07:16:11.922Z,0.70
2019-02-26T07:17:11.039Z,0.79
2019-02-26T07:18:15.029Z,0.75
2019-02-26T07:19:14.052Z,0.90
2019-02-26T07:20:11.047Z,0.90
2019-02-26T07:21:11.047Z,0.94
2019-02-26T07:22:11.651Z,0.91
2019-02-26T07:23:12.800Z,0.97
2019-02-26T07:24:10.965Z,0.98
2019-02-26T07:25:13.269Z,1.06
2019-02-26T07:26:13.133Z,1.09
2019-02-26T07:27:13.708Z,1.14
2019-02-26T07:28:10.953Z,1.12
2019-02-26T07:29:12.815Z,1.18
2019-02-26T07:30:10.943Z,1.22
2019-02-26T07:31:12.155Z,1.15
2019-02-26T07:32:12.344Z,1.27
2019-02-26T07:33:12.266Z,1.24
2019-02-26T07:34:10.940Z,1.24
2019-02-26T07:35:13.106Z,1.20
2019-02-26T07:36:10.854Z,1.20
2019-02-26T07:37:11.693Z,1.23
2019-02-26T07:38:10.809Z,1.27
2019-02-26T07:39:13.087Z,1.29
2019-02-26T07:40:13.002Z,1.40
2019-02-26T07:41:10.782Z,1.40
2019-02-26T07:42:11.608Z,1.40
2019-02-26T07:43:14.420Z,1.41
2019-02-26T07:44:15.398Z,1.40
2019-02-26T07:45:15.032Z,1.40
2019-02-26T07:46:12.700Z,1.48
2019-02-26T07:47:11.298Z,1.58
2019-02-26T07:48:10.691Z,1.54
2019-02-26T07:49:10.690Z,1.62
2019-02-26T07:50:12.283Z,1.65
2019-02-26T07:51:10.662Z,1.69
2019-02-26T07:52:10.685Z,1.70
2019-02-26T07:53:12.235Z,1.76
2019-02-26T07:54:10.637Z,1.76
2019-02-26T07:55:12.132Z,1.81
2019-02-26T07:56:10.623Z,1.81
2019-02-26T07:57:10.648Z,1.88
2019-02-26T07:58:11.513Z,2.02
2019-02-26T07:59:12.431Z,2.10
2019-02-26T08:00:10.588Z,2.05
2019-02-26T08:01:10.549Z,2.18
2019-02-26T08:02:11.332Z,2.30
2019-02-26T08:03:10.539Z,2.45
2019-02-26T08:04:32.360Z,2.56
2019-02-26T08:05:10.610Z,2.71
2019-02-26T08:06:12.144Z,2.79
2019-02-26T08:07:10.510Z,2.78
2019-02-26T08:08:12.078Z,2.82
2019-02-26T08:09:13.516Z,2.90
2019-02-26T08:10:12.249Z,2.85
2019-02-26T08:11:10.434Z,3.02
2019-02-26T08:12:11.275Z,3.06
2019-02-26T08:13:10.463Z,3.08
2019-02-26T08:14:10.414Z,2.99
2019-02-26T08:15:12.298Z,3.00
2019-02-26T08:16:10.389Z,3.10
2019-02-26T08:17:10.454Z,3.08
2019-02-26T08:18:10.408Z,3.11
2019-02-26T08:19:10.383Z,3.14
2019-02-26T08:20:12.863Z,3.14
2019-02-26T08:21:10.353Z,3.10
2019-02-26T08:22:10.312Z,3.08
2019-02-26T08:23:10.307Z,3.11
2019-02-26T08:24:12.388Z,3.10
2019-02-26T08:25:10.296Z,3.14
2019-02-26T08:26:10.273Z,3.00
2019-02-26T08:27:11.577Z,3.05
2019-02-26T08:28:10.277Z,3.05
2019-02-26T08:29:12.344Z,3.08
2019-02-26T08:30:12.125Z,3.06
2019-02-26T08:31:13.350Z,3.15
2019-02-26T08:32:13.788Z,3.23
2019-02-26T08:33:10.208Z,3.29
2019-02-26T08:34:12.657Z,3.47
2019-02-26T08:35:10.214Z,3.54
2019-02-26T08:36:13.559Z,3.65
2019-02-26T08:37:10.135Z,3.75
2019-02-26T08:38:10.172Z,3.79
2019-02-26T08:39:15.001Z,3.84
2019-02-26T08:40:10.160Z,3.90
2019-02-26T08:41:10.129Z,3.98
2019-02-26T08:42:10.082Z,3.98
2019-02-26T08:43:10.124Z,4.15
2019-02-26T08:44:10.061Z,4.29
2019-02-26T08:45:10.060Z,4.41
2019-02-26T08:46:11.727Z,4.50
2019-02-26T08:47:12.036Z,4.50
2019-02-26T08:48:10.017Z,4.62
2019-02-26T08:49:11.095Z,4.67
2019-02-26T08:50:11.920Z,4.70
2019-02-26T08:51:13.514Z,4.75
2019-02-26T08:52:11.009Z,4.96
2019-02-26T08:53:10.044Z,5.04
2019-02-26T08:54:09.949Z,5.18
2019-02-26T08:55:10.763Z,5.31
2019-02-26T08:56:09.927Z,5.36
2019-02-26T08:57:11.908Z,5.39
2019-02-26T08:58:10.717Z,5.46
2019-02-26T08:59:09.899Z,5.51
2019-02-26T09:00:09.894Z,5.54
2019-02-26T09:01:09.871Z,5.61
2019-02-26T09:02:09.902Z,5.72
2019-02-26T09:03:10.735Z,5.72
2019-02-26T09:04:09.826Z,5.78
2019-02-26T09:05:11.917Z,5.90
2019-02-26T09:06:13.234Z,5.96
2019-02-26T09:07:09.804Z,6.08
2019-02-26T09:08:12.829Z,6.12
2019-02-26T09:09:09.778Z,6.17
2019-02-26T09:10:10.768Z,6.14
2019-02-26T09:11:10.719Z,6.18
2019-02-26T09:12:09.782Z,6.15
2019-02-26T09:13:11.523Z,6.15
2019-02-26T09:14:11.550Z,6.21
2019-02-26T09:15:09.720Z,6.22
2019-02-26T09:16:09.718Z,6.19
2019-02-26T09:17:09.689Z,6.28
2019-02-26T09:18:09.699Z,6.21
2019-02-26T09:19:09.752Z,6.34
2019-02-26T09:20:12.220Z,6.27
2019-02-26T09:21:10.219Z,6.30
2019-02-26T09:22:11.878Z,6.37
2019-02-26T09:23:10.622Z,6.36
2019-02-26T09:24:09.649Z,6.41
2019-02-26T09:25:09.597Z,6.48
2019-02-26T09:26:09.606Z,6.52
2019-02-26T09:27:09.599Z,6.44
2019-02-26T09:28:09.602Z,6.52
2019-02-26T09:29:10.331Z,6.55
2019-02-26T09:30:11.709Z,6.56
2019-02-26T09:31:11.684Z,6.67
2019-02-26T09:32:11.186Z,6.67
2019-02-26T09:33:11.073Z,6.73
2019-02-26T09:34:09.487Z,6.69
2019-02-26T09:35:09.502Z,6.69
2019-02-26T09:36:12.627Z,6.76
2019-02-26T09:37:09.468Z,6.77
2019-02-26T09:38:09.448Z,6.81
2019-02-26T09:39:10.795Z,6.91
2019-02-26T09:40:09.465Z,6.92
2019-02-26T09:41:11.324Z,6.97
2019-02-26T09:42:09.462Z,7.05
2019-02-26T09:43:09.381Z,6.94
2019-02-26T09:44:11.601Z,6.98
2019-02-26T09:45:09.424Z,7.09
2019-02-26T09:46:12.401Z,7.12
2019-02-26T09:47:09.378Z,7.07
2019-02-26T09:48:10.402Z,7.12
2019-02-26T09:49:10.500Z,7.10
2019-02-26T09:50:10.355Z,7.16
2019-02-26T09:51:11.548Z,7.09
2019-02-26T09:52:09.304Z,7.12
2019-02-26T09:53:09.283Z,7.23
2019-02-26T09:54:10.943Z,7.30
2019-02-26T09:55:10.667Z,7.24
2019-02-26T09:56:09.240Z,7.23
2019-02-26T09:57:09.252Z,7.35
2019-02-26T09:58:09.243Z,7.37
2019-02-26T09:59:10.233Z,7.45
2019-02-26T10:00:09.293Z,7.42
2019-02-26T10:01:11.019Z,7.37
2019-02-26T10:02:09.216Z,7.50
2019-02-26T10:03:11.063Z,7.57
2019-02-26T10:04:09.186Z,7.57
2019-02-26T10:05:11.182Z,7.52
2019-02-26T10:06:11.261Z,7.52
2019-02-26T10:07:11.316Z,7.52
2019-02-26T10:08:09.141Z,7.57
2019-02-26T10:09:12.783Z,7.60
2019-02-26T10:10:11.479Z,7.49
2019-02-26T10:11:09.097Z,7.60
2019-02-26T10:12:12.283Z,7.55
2019-02-26T10:13:09.062Z,7.60
2019-02-26T10:14:10.212Z,7.60
2019-02-26T10:15:09.040Z,7.57
2019-02-26T10:16:09.053Z,7.60
2019-02-26T10:17:09.687Z,7.63
2019-02-26T10:18:09.503Z,7.77
2019-02-26T10:19:10.200Z,7.69
2019-02-26T10:20:09.499Z,7.77
2019-02-26T10:21:11.096Z,7.77
2019-02-26T10:22:12.600Z,7.85
2019-02-26T10:23:08.957Z,7.90
2019-02-26T10:24:08.945Z,7.89
2019-02-26T10:25:08.912Z,7.90
2019-02-26T10:26:10.681Z,8.00
2019-02-26T10:27:11.416Z,8.02
2019-02-26T10:28:11.564Z,8.04
2019-02-26T10:29:08.885Z,8.10
2019-02-26T10:30:11.295Z,8.10
2019-02-26T10:31:09.722Z,8.08
2019-02-26T10:32:11.199Z,8.15
2019-02-26T10:33:08.817Z,8.12
2019-02-26T10:34:12.443Z,8.15
2019-02-26T10:35:11.913Z,8.29
2019-02-26T10:36:11.174Z,8.19
2019-02-26T10:37:08.775Z,8.25
2019-02-26T10:38:11.577Z,8.25
2019-02-26T10:39:08.751Z,8.38
2019-02-26T10:40:10.204Z,8.30
2019-02-26T10:41:08.752Z,8.34
2019-02-26T10:42:08.714Z,8.33
2019-02-26T10:43:08.701Z,8.37
2019-02-26T10:44:08.683Z,8.29
2019-02-26T10:45:08.709Z,8.38
2019-02-26T10:46:08.751Z,8.36
2019-02-26T10:47:10.569Z,8.33
2019-02-26T10:48:08.659Z,8.30
2019-02-26T10:49:08.630Z,8.36
2019-02-26T10:50:10.140Z,8.34
2019-02-26T10:51:08.629Z,8.38
2019-02-26T10:52:10.842Z,8.45
2019-02-26T10:53:13.154Z,8.45
2019-02-26T10:54:12.156Z,8.50
2019-02-26T10:55:12.831Z,8.37
2019-02-26T10:56:09.594Z,8.45
2019-02-26T10:57:11.305Z,8.44
2019-02-26T10:58:12.150Z,8.52
2019-02-26T10:59:09.383Z,8.45
2019-02-26T11:00:10.822Z,8.47
2019-02-26T11:01:08.493Z,8.40
2019-02-26T11:02:08.512Z,8.56
2019-02-26T11:03:09.088Z,8.53
2019-02-26T11:04:08.454Z,8.58
2019-02-26T11:05:10.680Z,8.48
2019-02-26T11:06:10.051Z,8.59
2019-02-26T11:07:10.998Z,8.61
2019-02-26T11:08:09.385Z,8.66
2019-02-26T11:09:08.431Z,8.66
2019-02-26T11:10:08.395Z,8.66
2019-02-26T11:11:10.050Z,8.70
2019-02-26T11:12:08.682Z,8.73
2019-02-26T11:13:08.357Z,8.79
2019-02-26T11:14:10.450Z,8.79
2019-02-26T11:15:09.238Z,8.87
2019-02-26T11:16:08.319Z,8.86
2019-02-26T11:17:08.344Z,8.96
2019-02-26T11:18:11.492Z,9.02
2019-02-26T11:19:10.366Z,9.02
2019-02-26T11:20:08.282Z,9.01
2019-02-26T11:21:08.279Z,9.02
2019-02-26T11:22:08.252Z,9.18
2019-02-26T11:23:09.043Z,9.24
2019-02-26T11:24:08.629Z,9.21
2019-02-26T11:25:08.259Z,9.29
2019-02-26T11:26:10.698Z,9.35
2019-02-26T11:27:08.227Z,9.51
2019-02-26T11:28:10.532Z,9.47
2019-02-26T11:29:08.186Z,9.58
2019-02-26T11:30:08.153Z,9.60
2019-02-26T11:31:09.098Z,9.61
2019-02-26T11:32:10.222Z,9.64
2019-02-26T11:33:10.573Z,9.75
2019-02-26T11:34:10.981Z,9.84
2019-02-26T11:35:09.098Z,9.79
2019-02-26T11:36:10.604Z,9.78
2019-02-26T11:37:08.952Z,9.75
2019-02-26T11:38:09.251Z,9.75
2019-02-26T11:39:09.286Z,9.75
2019-02-26T11:40:08.041Z,9.83
2019-02-26T11:41:08.031Z,9.90
2019-02-26T11:42:08.018Z,9.89
2019-02-26T11:43:11.757Z,9.96
2019-02-26T11:44:12.486Z,10.05
2019-02-26T11:45:09.817Z,10.18
2019-02-26T11:46:08.753Z,9.99
2019-02-26T11:47:08.646Z,9.97
2019-02-26T11:48:08.789Z,9.94
2019-02-26T11:49:09.453Z,9.94
2019-02-26T11:50:10.097Z,9.87
2019-02-26T11:51:07.915Z,9.89
2019-02-26T11:52:08.850Z,9.86
2019-02-26T11:53:09.925Z,9.94
2019-02-26T11:54:10.027Z,9.97
2019-02-26T11:55:09.422Z,9.94
2019-02-26T11:56:07.867Z,9.81
2019-02-26T11:57:10.282Z,9.87
2019-02-26T11:58:10.128Z,9.86
2019-02-26T11:59:11.233Z,9.76
2019-02-26T12:00:09.205Z,9.78
2019-02-26T12:01:07.859Z,9.68
2019-02-26T12:02:07.792Z,9.58
2019-02-26T12:03:07.786Z,9.56
2019-02-26T12:04:08.537Z,9.64
2019-02-26T12:05:08.789Z,9.61
2019-02-26T12:06:07.745Z,9.61
2019-02-26T12:07:09.801Z,9.60
2019-02-26T12:08:07.718Z,9.60
2019-02-26T12:09:08.782Z,9.48
2019-02-26T12:10:10.364Z,9.51
2019-02-26T12:11:12.398Z,9.60
2019-02-26T12:12:09.221Z,9.50
2019-02-26T12:13:07.673Z,9.60
2019-02-26T12:14:08.294Z,9.65
2019-02-26T12:15:11.916Z,9.72
2019-02-26T12:16:07.629Z,9.83
2019-02-26T12:17:07.641Z,9.81
2019-02-26T12:18:09.882Z,9.83
2019-02-26T12:19:08.704Z,9.71
2019-02-26T12:20:07.588Z,9.81
2019-02-26T12:21:10.177Z,9.72
2019-02-26T12:22:07.568Z,9.79
2019-02-26T12:23:08.057Z,9.84
2019-02-26T12:24:09.240Z,9.84
2019-02-26T12:25:08.933Z,9.90
2019-02-26T12:26:07.518Z,9.81
2019-02-26T12:27:09.786Z,9.86
2019-02-26T12:28:08.249Z,9.97
2019-02-26T12:29:07.495Z,10.14
2019-02-26T12:30:09.905Z,10.15
2019-02-26T12:31:09.991Z,10.27
2019-02-26T12:32:08.456Z,10.33
2019-02-26T12:33:09.955Z,10.38
2019-02-26T12:34:09.141Z,10.48
2019-02-26T12:35:08.705Z,10.47
2019-02-26T12:36:09.761Z,10.63
2019-02-26T12:37:09.828Z,10.74
2019-02-26T12:38:18.120Z,10.76
2019-02-26T12:39:08.395Z,10.71
2019-02-26T12:40:07.376Z,10.60
2019-02-26T12:41:09.070Z,10.71
2019-02-26T12:42:10.436Z,10.66
2019-02-26T12:43:11.063Z,10.66
2019-02-26T12:44:10.940Z,10.67
2019-02-26T12:45:09.902Z,10.66
2019-02-26T12:46:08.474Z,10.60
2019-02-26T12:47:07.288Z,10.66
2019-02-26T12:48:10.281Z,10.70
2019-02-26T12:49:11.695Z,10.79
2019-02-26T12:50:09.721Z,10.84
2019-02-26T12:51:07.698Z,10.89
2019-02-26T12:52:07.227Z,10.79
2019-02-26T12:53:09.466Z,10.71
2019-02-26T12:54:10.053Z,10.68
2019-02-26T12:55:08.559Z,10.66
2019-02-26T12:56:08.851Z,10.68
2019-02-26T12:57:07.163Z,10.67
2019-02-26T12:58:07.155Z,10.78
2019-02-26T12:59:07.748Z,10.85
2019-02-26T13:00:08.038Z,11.00
2019-02-26T13:01:07.148Z,11.06
2019-02-26T13:02:12.204Z,11.04
2019-02-26T13:03:09.366Z,11.06
2019-02-26T13:04:09.575Z,11.04
2019-02-26T13:05:10.120Z,11.09
2019-02-26T13:06:11.412Z,11.06
2019-02-26T13:07:09.329Z,11.06
2019-02-26T13:08:10.022Z,11.03
2019-02-26T13:09:08.856Z,10.99
2019-02-26T13:10:07.011Z,11.09